createdAt,value
2022-12-14T00:02:24.061Z,-8.70
2022-12-14T00:06:28.853Z,-8.74
2022-12-14T00:10:33.322Z,-8.67
2022-12-14T00:14:35.216Z,-8.70
2022-12-14T00:18:38.535Z,-8.73
2022-12-14T00:22:40.655Z,-8.71
2022-12-14T00:26:43.066Z,-8.89
2022-12-14T00:30:44.985Z,-9.10
2022-12-14T00:34:46.929Z,-9.17
2022-12-14T00:38:48.997Z,-9.29
2022-12-14T00:42:50.915Z,-9.26
2022-12-14T00:46:52.867Z,-9.20
2022-12-14T00:50:55.832Z,-9.26
2022-12-14T00:54:57.825Z,-9.39
2022-12-14T00:58:59.766Z,-9.40
2022-12-14T01:03:02.221Z,-9.39
2022-12-14T01:07:04.216Z,-9.64
2022-12-14T01:11:07.482Z,-9.87
2022-12-14T01:15:09.901Z,-9.96
2022-12-14T01:19:13.160Z,-10.00
2022-12-14T01:23:15.100Z,-9.90
2022-12-14T01:27:17.029Z,-9.76
2022-12-14T01:31:21.755Z,-9.72
2022-12-14T01:35:23.945Z,-9.75
2022-12-14T01:39:25.871Z,-9.82
2022-12-14T01:43:51.694Z,-9.90
2022-12-14T01:48:01.204Z,-9.99
2022-12-14T01:52:28.214Z,-10.11
2022-12-14T01:56:31.731Z,-10.21
2022-12-14T02:00:33.682Z,-10.33
2022-12-14T02:04:41.619Z,-10.52
2022-12-14T02:08:45.546Z,-10.60
2022-12-14T02:12:58.700Z,-10.71
2022-12-14T02:17:01.336Z,-10.90
2022-12-14T02:21:25.345Z,-11.04
2022-12-14T02:25:45.427Z,-11.18
2022-12-14T02:30:16.705Z,-11.33
2022-12-14T02:34:33.555Z,-11.41
2022-12-14T02:39:03.391Z,-11.48
2022-12-14T02:43:17.468Z,-11.52
2022-12-14T02:47:37.732Z,-11.63
2022-12-14T02:52:02.975Z,-11.72
2022-12-14T02:56:10.890Z,-11.80
2022-12-14T03:00:13.220Z,-11.86
2022-12-14T03:04:16.030Z,-11.90
2022-12-14T03:08:18.166Z,-11.96
2022-12-14T03:12:21.957Z,-12.02
2022-12-14T03:16:48.429Z,-12.19
2022-12-14T03:20:53.282Z,-12.36
2022-12-14T03:25:01.352Z,-12.58
2022-12-14T03:29:15.177Z,-12.66
2022-12-14T03:33:22.643Z,-12.66
2022-12-14T03:37:37.849Z,-12.66
2022-12-14T03:41:48.902Z,-12.64
2022-12-14T03:46:29.647Z,-12.74
2022-12-14T03:50:40.030Z,-12.90
2022-12-14T03:54:53.821Z,-13.07
2022-12-14T03:59:14.370Z,-13.18
2022-12-14T04:03:42.192Z,-13.28
2022-12-14T04:07:54.863Z,-13.58
2022-12-14T04:12:37.787Z,-13.79
2022-12-14T04:17:00.872Z,-13.72
2022-12-14T04:21:19.252Z,-13.85
2022-12-14T04:25:50.269Z,-13.91
2022-12-14T04:29:56.938Z,-13.84
2022-12-14T04:34:04.046Z,-13.73
2022-12-14T04:38:19.974Z,-13.70
2022-12-14T04:42:31.842Z,-13.68
2022-12-14T04:46:40.735Z,-13.68
2022-12-14T04:50:50.657Z,-13.66
2022-12-14T04:54:59.082Z,-13.70
2022-12-14T04:59:01.683Z,-13.81
2022-12-14T05:03:23.789Z,-13.91
2022-12-14T05:07:56.527Z,-13.98
2022-12-14T05:12:16.115Z,-14.34
2022-12-14T05:16:20.953Z,-14.50
2022-12-14T05:20:24.129Z,-14.44
2022-12-14T05:24:26.107Z,-14.35
2022-12-14T05:28:28.057Z,-14.40
2022-12-14T05:32:30.098Z,-14.56
2022-12-14T05:36:32.024Z,-14.43
2022-12-14T05:40:33.987Z,-14.32
2022-12-14T05:44:35.826Z,-14.23
2022-12-14T05:48:37.728Z,-14.16
2022-12-14T05:52:39.689Z,-14.12
2022-12-14T05:56:41.643Z,-14.06
2022-12-14T06:00:43.760Z,-14.08
2022-12-14T06:04:46.159Z,-14.08
2022-12-14T06:08:48.556Z,-14.05
2022-12-14T06:12:51.202Z,-14.04
2022-12-14T06:16:53.166Z,-14.06
2022-12-14T06:20:56.041Z,-14.11
2022-12-14T06:24:58.012Z,-14.19
2022-12-14T06:29:00.003Z,-14.38
2022-12-14T06:33:01.964Z,-14.66
2022-12-14T06:37:04.049Z,-14.76
2022-12-14T06:41:08.269Z,-14.77
2022-12-14T06:45:10.714Z,-14.69
2022-12-14T06:49:15.080Z,-14.57
2022-12-14T06:53:17.286Z,-14.37
2022-12-14T06:57:19.297Z,-14.18
2022-12-14T07:01:24.081Z,-13.99
2022-12-14T07:05:26.112Z,-13.85
2022-12-14T07:09:28.044Z,-13.82
2022-12-14T07:13:30.409Z,-13.99
2022-12-14T07:17:35.864Z,-14.04
2022-12-14T07:21:37.759Z,-13.91
2022-12-14T07:25:39.602Z,-13.79
2022-12-14T07:29:41.551Z,-13.71
2022-12-14T07:33:44.062Z,-13.61
2022-12-14T07:37:49.395Z,-13.48
2022-12-14T07:41:51.717Z,-13.31
2022-12-14T07:46:01.562Z,-13.10
2022-12-14T07:50:03.663Z,-13.05
2022-12-14T07:54:06.363Z,-12.94
2022-12-14T07:58:08.248Z,-12.72
2022-12-14T08:02:11.721Z,-12.53
2022-12-14T08:06:15.596Z,-12.37
2022-12-14T08:10:17.544Z,-12.23
2022-12-14T08:14:19.595Z,-12.02
2022-12-14T08:18:21.870Z,-11.76
2022-12-14T08:22:23.988Z,-11.53
2022-12-14T08:26:31.659Z,-11.35
2022-12-14T08:30:40.023Z,-11.18
2022-12-14T08:34:41.933Z,-11.02
2022-12-14T08:38:44.243Z,-10.83
2022-12-14T08:42:49.703Z,-10.65
2022-12-14T08:46:51.745Z,-10.43
2022-12-14T08:50:53.855Z,-10.21
2022-12-14T08:54:55.700Z,-9.94
2022-12-14T08:58:57.672Z,-9.63
2022-12-14T09:02:59.668Z,-9.37
2022-12-14T09:07:01.863Z,-9.12
2022-12-14T09:11:05.638Z,-8.86
2022-12-14T09:15:08.520Z,-8.62
2022-12-14T09:19:11.485Z,-8.45
2022-12-14T09:23:13.335Z,-8.32
2022-12-14T09:27:15.237Z,-8.21
2022-12-14T09:31:19.861Z,-8.04
2022-12-14T09:35:22.069Z,-7.85
2022-12-14T09:39:24.587Z,-7.67
2022-12-14T09:44:17.703Z,-7.52
2022-12-14T09:48:24.664Z,-7.36
2022-12-14T09:52:34.643Z,-7.17
2022-12-14T09:56:37.936Z,-6.95
2022-12-14T10:00:52.912Z,-6.76
2022-12-14T10:05:10.850Z,-6.59
2022-12-14T10:09:59.346Z,-6.50
2022-12-14T10:14:20.512Z,-6.44
2022-12-14T10:18:58.197Z,-6.42
2022-12-14T10:22:56.903Z,-6.45
2022-12-14T10:27:00.767Z,-6.47
2022-12-14T10:31:07.063Z,-6.45
2022-12-14T10:35:14.226Z,-6.42
2022-12-14T10:39:40.277Z,-6.39
2022-12-14T10:44:07.075Z,-6.35
2022-12-14T10:48:27.964Z,-6.32
2022-12-14T10:52:41.516Z,-6.27
2022-12-14T10:56:50.020Z,-6.17
2022-12-14T11:00:56.890Z,-6.02
2022-12-14T11:05:05.603Z,-5.86
2022-12-14T11:09:23.950Z,-5.68
2022-12-14T11:13:33.925Z,-5.50
2022-12-14T11:17:42.298Z,-5.35
2022-12-14T11:21:45.693Z,-5.30
2022-12-14T11:25:58.577Z,-5.24
2022-12-14T11:30:00.523Z,-5.20
2022-12-14T11:34:05.086Z,-5.19
2022-12-14T11:38:15.330Z,-5.23
2022-12-14T11:42:19.651Z,-5.26
2022-12-14T11:46:21.665Z,-5.30
2022-12-14T11:50:24.931Z,-5.33
2022-12-14T11:54:27.963Z,-5.36
2022-12-14T11:58:47.541Z,-5.40
2022-12-14T12:03:02.180Z,-5.45
2022-12-14T12:07:25.110Z,-5.41
2022-12-14T12:11:30.705Z,-5.31
2022-12-14T12:15:42.737Z,-5.24
2022-12-14T12:19:52.196Z,-5.26
2022-12-14T12:24:01.458Z,-5.32
2022-12-14T12:28:14.125Z,-5.39
2022-12-14T12:32:34.314Z,-5.45
2022-12-14T12:36:37.546Z,-5.50
2022-12-14T12:41:05.697Z,-5.56
2022-12-14T12:45:33.578Z,-5.61
2022-12-14T12:49:35.738Z,-5.67
2022-12-14T12:53:53.926Z,-5.66
2022-12-14T12:57:58.638Z,-5.66
2022-12-14T13:02:16.164Z,-5.67
2022-12-14T13:06:24.073Z,-5.72
2022-12-14T13:10:32.650Z,-5.78
2022-12-14T13:14:49.921Z,-5.85
2022-12-14T13:19:04.932Z,-5.92
2022-12-14T13:23:43.668Z,-5.95
2022-12-14T13:28:03.780Z,-5.99
2022-12-14T13:32:11.472Z,-6.09
2022-12-14T13:36:46.089Z,-6.18
2022-12-14T13:41:16.573Z,-6.28
2022-12-14T13:45:31.758Z,-6.31
2022-12-14T13:49:33.855Z,-6.30
2022-12-14T13:53:56.577Z,-6.32
2022-12-14T13:58:19.691Z,-6.39
2022-12-14T14:02:30.692Z,-6.55
2022-12-14T14:06:47.030Z,-6.71
2022-12-14T14:10:54.100Z,-6.83
2022-12-14T14:15:29.322Z,-6.90
2022-12-14T14:19:39.163Z,-6.98
2022-12-14T14:23:57.726Z,-7.06
2022-12-14T14:28:00.366Z,-7.17
2022-12-14T14:32:05.907Z,-7.29
2022-12-14T14:36:25.885Z,-7.39
2022-12-14T14:41:06.575Z,-7.44
2022-12-14T14:45:00.050Z,-7.50
2022-12-14T14:49:02.728Z,-7.56
2022-12-14T14:53:31.890Z,-7.67
2022-12-14T14:57:58.471Z,-7.72
2022-12-14T15:02:03.585Z,-7.71
2022-12-14T15:06:32.899Z,-7.71
2022-12-14T15:10:41.559Z,-7.72
2022-12-14T15:14:52.502Z,-7.76
2022-12-14T15:18:55.422Z,-7.76
2022-12-14T15:22:57.890Z,-7.72
2022-12-14T15:27:12.300Z,-7.71
2022-12-14T15:31:14.440Z,-7.71
2022-12-14T15:35:25.198Z,-7.73
2022-12-14T15:39:30.195Z,-7.68
2022-12-14T15:43:33.483Z,-7.62
2022-12-14T15:47:36.377Z,-7.58
2022-12-14T15:51:41.650Z,-7.57
2022-12-14T15:55:54.864Z,-7.59
2022-12-14T16:00:00.912Z,-7.60
2022-12-14T16:04:09.287Z,-7.55
2022-12-14T16:08:11.681Z,-7.48
2022-12-14T16:12:46.411Z,-7.45
2022-12-14T16:16:49.389Z,-7.43
2022-12-14T16:20:57.571Z,-7.43
2022-12-14T16:25:19.203Z,-7.41
2022-12-14T16:29:27.150Z,-7.35
2022-12-14T16:33:32.987Z,-7.31
2022-12-14T16:37:35.411Z,-7.30
2022-12-14T16:41:54.753Z,-7.31
2022-12-14T16:45:59.797Z,-7.29
2022-12-14T16:50:01.764Z,-7.23
2022-12-14T16:54:20.365Z,-7.14
2022-12-14T16:58:22.311Z,-7.07
2022-12-14T17:02:51.897Z,-7.05
2022-12-14T17:06:55.019Z,-7.00
2022-12-14T17:10:57.590Z,-6.92
2022-12-14T17:15:00.235Z,-6.87
2022-12-14T17:19:04.538Z,-6.84
2022-12-14T17:23:09.444Z,-6.83
2022-12-14T17:27:16.197Z,-6.78
2022-12-14T17:31:21.843Z,-6.71
2022-12-14T17:35:25.607Z,-6.68
2022-12-14T17:39:28.588Z,-6.68
2022-12-14T17:43:30.808Z,-6.65
2022-12-14T17:47:32.985Z,-6.60
2022-12-14T17:51:41.241Z,-6.57
2022-12-14T17:55:43.531Z,-6.57
2022-12-14T17:59:47.626Z,-6.53
2022-12-14T18:03:50.571Z,-6.48
2022-12-14T18:07:52.581Z,-6.46
2022-12-14T18:12:22.072Z,-6.44
2022-12-14T18:16:22.058Z,-6.38
2022-12-14T18:20:24.522Z,-6.35
2022-12-14T18:24:26.506Z,-6.32
2022-12-14T18:28:28.462Z,-6.26
2022-12-14T18:32:30.399Z,-6.22
2022-12-14T18:36:32.351Z,-6.20
2022-12-14T18:40:34.911Z,-6.16
2022-12-14T18:44:37.520Z,-6.13
2022-12-14T18:48:40.355Z,-6.13
2022-12-14T18:52:43.753Z,-6.14
2022-12-14T18:56:45.753Z,-6.12
2022-12-14T19:00:54.971Z,-6.09
2022-12-14T19:04:57.078Z,-6.09
2022-12-14T19:08:59.190Z,-6.10
2022-12-14T19:13:01.583Z,-6.08
2022-12-14T19:17:03.511Z,-6.01
2022-12-14T19:21:05.683Z,-5.98
2022-12-14T19:25:08.878Z,-5.97
2022-12-14T19:29:10.873Z,-5.99
2022-12-14T19:33:12.984Z,-5.97
2022-12-14T19:37:15.969Z,-5.93
2022-12-14T19:41:19.782Z,-5.90
2022-12-14T19:45:21.751Z,-5.89
2022-12-14T19:49:23.763Z,-5.86
2022-12-14T19:53:26.783Z,-5.81
2022-12-14T19:57:29.623Z,-5.77
2022-12-14T20:01:41.966Z,-5.77
2022-12-14T20:06:02.172Z,-5.76
2022-12-14T20:10:06.612Z,-5.71
2022-12-14T20:14:10.009Z,-5.67
2022-12-14T20:18:11.878Z,-5.65
2022-12-14T20:22:14.656Z,-5.66
2022-12-14T20:26:19.774Z,-5.63
2022-12-14T20:30:21.681Z,-5.58
2022-12-14T20:34:23.958Z,-5.54
2022-12-14T20:38:26.662Z,-5.54
2022-12-14T20:42:28.927Z,-5.56
2022-12-14T20:46:31.055Z,-5.55
2022-12-14T20:50:40.727Z,-5.50
2022-12-14T20:54:42.648Z,-5.44
2022-12-14T20:58:46.625Z,-5.41
2022-12-14T21:02:48.739Z,-5.40
2022-12-14T21:06:52.129Z,-5.36
2022-12-14T21:11:20.792Z,-5.31
2022-12-14T21:15:22.943Z,-5.25
2022-12-14T21:19:25.524Z,-5.24
2022-12-14T21:23:27.784Z,-5.25
2022-12-14T21:27:30.502Z,-5.26
2022-12-14T21:31:34.319Z,-5.22
2022-12-14T21:35:40.190Z,-5.19
2022-12-14T21:39:45.237Z,-5.18
2022-12-14T21:43:50.657Z,-5.20
2022-12-14T21:47:52.806Z,-5.18
2022-12-14T21:51:56.170Z,-5.14
2022-12-14T21:56:17.046Z,-5.10
2022-12-14T22:00:19.524Z,-5.11
2022-12-14T22:04:22.480Z,-5.12
2022-12-14T22:08:24.557Z,-5.10
2022-12-14T22:12:26.471Z,-5.06
2022-12-14T22:16:33.439Z,-5.03
2022-12-14T22:20:35.499Z,-5.03
2022-12-14T22:24:37.492Z,-5.04
2022-12-14T22:28:39.802Z,-5.02
2022-12-14T22:32:41.834Z,-4.96
2022-12-14T22:36:43.980Z,-4.89
2022-12-14T22:40:45.885Z,-4.85
2022-12-14T22:44:48.587Z,-4.85
2022-12-14T22:48:50.761Z,-4.87
2022-12-14T22:52:53.025Z,-4.88
2022-12-14T22:57:03.793Z,-4.86
2022-12-14T23:01:05.743Z,-4.82
2022-12-14T23:05:08.519Z,-4.79
2022-12-14T23:09:29.205Z,-4.80
2022-12-14T23:13:49.741Z,-4.80
2022-12-14T23:18:13.809Z,-4.76
2022-12-14T23:22:34.454Z,-4.71
2022-12-14T23:26:54.896Z,-4.71
2022-12-14T23:31:16.497Z,-4.74
2022-12-14T23:35:37.170Z,-4.74
2022-12-14T23:39:57.762Z,-4.69
2022-12-14T23:44:18.325Z,-4.63
2022-12-14T23:48:38.837Z,-4.63
2022-12-14T23:52:59.378Z,-4.66
2022-12-14T23:57:20.425Z,-4.71
